Actualité aéronautique

Une victime dans le crash d'un 737 de la AIRES Colombia

Article publié le 16 août 2010 par Simon Castaing

Un Boeing 737 de la compagnie colombienne AIRES Colombia s'est écrasé à l'atterrissage sur l'aéroport de San Andres.

Une seule victime, c'est le bilan du crash d'un Boeing 737-700 (737-73V) de la compagnie aérienne AIRES Colombia. L'avion était immatriculé HK-4682 et portait le numéro de série 32416, son numéro de ligne étant 1270. L'appareil avait réalisé son premier vol le 10 janvier 2003 et a fait la plus grande partie de sa carrière chez easyJet de février 2003 à janvier 2010.

L'accident s'est produit sur l'aéroport de San Andres Island - Gustavo Rojas Pinilla (AITA : ADZ, OACI : SKBO) en Colombie lors des maneuvres d'atterrissage à l'arrivée d'un vol provenant de Bogota Eldorado (AITA : ADZ, OACI : SKSP) également en Colombie. Il y avait deux pilotes, quatre membres d'équipage et 121 passagers à bord.

L'avion s'est brisé en trois et se posait sur la piste 06 sous un orage.

Le drame s'est produit à 1h49 locale (6h49 UTC).

 

Liens commerciaux

Les réactions des lecteurs

Simon
Responsable

Inscrit le 30/08/2005
1 383 messages postés

# 16 août 2010 23:34
Compte tenu de la météo au moment du drame :
SKSP 160500Z 07006KT 9999 FEW016 SCT200 29/26 A2990=
SKSP 161100Z 00000KT 9999 FEW013CB SCT080 27/25 A2985 RMK LTNG/CB/E=

L'avion a probablement décroché près du sol au moment où le vent s'inverse brutalement lors du passage d'un orage. C'est un phénomène bien connu et redouté en aéronautique.

Le même genre d'élément contributeur que le crash du 340 d'Air France à Toronto.

(Dernière édition le 16 août 2010 23:51)


_________________
Simon - AeroWeb-fr.net
Voir le profil de l'auteur Envoyer un message privé à l'auteur

airbus006
Membre

Inscrit le 16/08/2010
8 messages postés

# 16 août 2010 23:46
Dans le JT de ce soir, il a été dit que l'avion a été touché par la foudre. Quelqu'un peut confirmer ?

(Dernière édition le 16 août 2010 23:59)

Voir le profil de l'auteur Envoyer un message privé à l'auteur

Simon
Responsable

Inscrit le 30/08/2005
1 383 messages postés

# 16 août 2010 23:58
airbus006 a écrit :Dans le JT de ce soir, il a été dit que l'avion a été touché par la foudre. Quelqu'un peut confirmer ?
C'est plus que probable sous un orage mais n'a pas d'impact sur le fonctionnement de l'avion et son comportement.

_________________
Simon - AeroWeb-fr.net
Voir le profil de l'auteur Envoyer un message privé à l'auteur

Voir toutes les réactions sur le forum

Les plus belles photos d'avions
Boeing 787-9 (C-FNOI) Airbus A320-214 (WL) (PK-GQJ) Boeing 777-333/ER (C-FIVM) Boeing 747-430 (D-ABVR) Boeing 777-3U3(ER) (PK-GID) Cessna 750 Citation X (N232CF)